logo
Search for airport 
image banner adimage banner adimage banner ad
image banner ad

EDVG - Mengeringhausen

Located in Bad Arolsen, Germany

ICAO - EDVG, IATA -

Data provided by Airmate  

General information

Coordinates: N51°22'35" E8°58'52"
Elevation is 1190 feet MSL.
 
View others Airports in Hesse

Operational data

Special qualification required
Current time UTC:
Current local time:
Weather at : EDVK - Kassel-Calden ( 29 km )
METAR: EDVK 010750Z 21007KT CAVOK 14/10 Q1025
TAF: TAF EDVK 010500Z 0106/0115 19005KT CAVOK
View NOTAMs / SUP AIP / TFR affecting this airport [VIEW]
Communications frequencies: [VIEW]

Runways:

RWY identifierQFULength (ft)Width (ft)SurfaceLDA (ft)
12123°177298GRASS1772
30303°177298GRASS1772

Airport contact information

Address: Bad Arolsen Germany

Satellite view of EDVG